createdAt,value
2022-08-07T00:00:29.759Z,16.89
2022-08-07T00:03:13.694Z,16.84
2022-08-07T00:05:45.789Z,16.81
2022-08-07T00:08:19.014Z,16.75
2022-08-07T00:10:57.589Z,16.66
2022-08-07T00:13:31.079Z,16.57
2022-08-07T00:16:05.917Z,16.52
2022-08-07T00:18:40.121Z,16.54
2022-08-07T00:21:57.003Z,16.45
2022-08-07T00:24:02.965Z,16.33
2022-08-07T00:26:59.488Z,16.21
2022-08-07T00:29:31.276Z,16.14
2022-08-07T00:32:03.957Z,16.06
2022-08-07T00:34:37.769Z,15.91
2022-08-07T00:37:09.763Z,15.68
2022-08-07T00:39:45.244Z,15.59
2022-08-07T00:42:29.273Z,15.49
2022-08-07T00:45:02.190Z,15.41
2022-08-07T00:48:07.744Z,15.25
2022-08-07T00:50:46.525Z,15.08
2022-08-07T00:53:24.072Z,15.25
2022-08-07T00:56:03.131Z,15.32
2022-08-07T00:58:35.875Z,15.26
2022-08-07T01:01:09.963Z,15.16
2022-08-07T01:03:57.391Z,15.04
2022-08-07T01:06:32.265Z,15.17
2022-08-07T01:09:04.998Z,15.13
2022-08-07T01:12:23.356Z,15.06
2022-08-07T01:14:30.080Z,14.93
2022-08-07T01:17:04.178Z,14.89
2022-08-07T01:19:42.041Z,14.78
2022-08-07T01:22:29.235Z,14.84
2022-08-07T01:25:02.389Z,14.82
2022-08-07T01:27:51.321Z,14.64
2022-08-07T01:30:27.287Z,14.64
2022-08-07T01:33:02.317Z,14.53
2022-08-07T01:35:52.625Z,14.77
2022-08-07T01:38:29.199Z,14.79
2022-08-07T01:41:08.233Z,14.78
2022-08-07T01:43:43.424Z,14.72
2022-08-07T01:46:16.086Z,14.75
2022-08-07T01:48:53.763Z,14.70
2022-08-07T01:52:03.970Z,14.72
2022-08-07T01:54:36.451Z,14.44
2022-08-07T01:57:34.154Z,14.40
2022-08-07T02:00:13.899Z,14.70
2022-08-07T02:03:12.498Z,14.94
2022-08-07T02:05:59.490Z,14.80
2022-08-07T02:08:40.414Z,14.56
2022-08-07T02:11:30.777Z,14.43
2022-08-07T02:14:08.757Z,14.31
2022-08-07T02:16:43.045Z,14.24
2022-08-07T02:20:05.478Z,14.34
2022-08-07T02:22:12.774Z,14.33
2022-08-07T02:24:53.664Z,14.53
2022-08-07T02:27:27.460Z,14.53
2022-08-07T02:30:08.725Z,14.41
2022-08-07T02:33:03.787Z,14.51
2022-08-07T02:36:26.880Z,14.26
2022-08-07T02:38:31.631Z,14.02
2022-08-07T02:41:08.016Z,14.16
2022-08-07T02:43:48.961Z,14.27
2022-08-07T02:46:26.214Z,14.21
2022-08-07T02:49:03.297Z,14.25
2022-08-07T02:51:42.517Z,14.30
2022-08-07T02:54:27.139Z,14.27
2022-08-07T02:57:03.116Z,14.31
2022-08-07T02:59:39.712Z,14.33
2022-08-07T03:02:14.090Z,14.21
2022-08-07T03:04:49.293Z,14.11
2022-08-07T03:08:05.250Z,14.01
2022-08-07T03:10:16.893Z,14.04
2022-08-07T03:12:51.920Z,14.03
2022-08-07T03:15:28.058Z,13.86
2022-08-07T03:18:20.152Z,13.79
2022-08-07T03:20:52.958Z,13.71
2022-08-07T03:23:33.759Z,13.62
2022-08-07T03:26:07.376Z,13.78
2022-08-07T03:28:49.553Z,13.82
2022-08-07T03:31:42.142Z,14.06
2022-08-07T03:34:22.493Z,13.95
2022-08-07T03:36:58.491Z,13.94
2022-08-07T03:39:46.190Z,13.93
2022-08-07T03:42:27.111Z,13.67
2022-08-07T03:44:57.928Z,13.59
2022-08-07T03:47:48.239Z,13.51
2022-08-07T03:50:23.113Z,13.63
2022-08-07T03:52:57.316Z,13.58
2022-08-07T03:55:46.108Z,13.61
2022-08-07T03:58:33.727Z,13.60
2022-08-07T04:01:17.433Z,13.39
2022-08-07T04:03:55.319Z,13.41
2022-08-07T04:06:37.118Z,13.47
2022-08-07T04:09:16.674Z,13.46
2022-08-07T04:12:25.796Z,13.58
2022-08-07T04:14:47.639Z,13.42
2022-08-07T04:17:22.017Z,13.33
2022-08-07T04:19:59.197Z,13.48
2022-08-07T04:22:33.437Z,13.61
2022-08-07T04:25:12.742Z,13.76
2022-08-07T04:28:00.350Z,13.93
2022-08-07T04:30:43.413Z,13.98
2022-08-07T04:33:31.893Z,14.11
2022-08-07T04:36:09.893Z,14.18
2022-08-07T04:38:43.363Z,14.27
2022-08-07T04:41:19.104Z,14.40
2022-08-07T04:44:11.994Z,14.68
2022-08-07T04:47:04.387Z,14.83
2022-08-07T04:49:57.672Z,14.94
2022-08-07T04:52:51.127Z,15.05
2022-08-07T04:58:11.958Z,15.20
2022-08-07T04:58:49.781Z,15.32
2022-08-07T05:01:36.471Z,15.42
2022-08-07T05:04:17.910Z,15.48
2022-08-07T05:07:19.472Z,15.42
2022-08-07T05:10:00.724Z,15.45
2022-08-07T05:12:46.094Z,15.57
2022-08-07T05:15:24.102Z,15.76
2022-08-07T05:18:08.729Z,15.94
2022-08-07T05:20:44.728Z,16.03
2022-08-07T05:23:35.681Z,16.13
2022-08-07T05:26:18.890Z,16.25
2022-08-07T05:29:04.220Z,16.33
2022-08-07T05:31:40.472Z,16.43
2022-08-07T05:34:26.204Z,16.49
2022-08-07T05:37:00.386Z,16.57
2022-08-07T05:40:16.569Z,16.68
2022-08-07T05:42:36.714Z,16.72
2022-08-07T05:45:25.909Z,16.70
2022-08-07T05:48:09.158Z,16.77
2022-08-07T05:50:46.409Z,16.87
2022-08-07T05:54:13.719Z,16.97
2022-08-07T05:56:14.003Z,16.94
2022-08-07T05:58:52.878Z,17.03
2022-08-07T06:01:34.792Z,17.16
2022-08-07T06:04:10.477Z,17.25
2022-08-07T06:06:45.899Z,17.24
2022-08-07T06:09:20.129Z,17.36
2022-08-07T06:11:53.394Z,17.42
2022-08-07T06:14:28.749Z,17.45
2022-08-07T06:17:07.331Z,17.57
2022-08-07T06:19:52.051Z,17.65
2022-08-07T06:22:40.027Z,17.71
2022-08-07T06:25:34.722Z,17.84
2022-08-07T06:28:10.349Z,17.91
2022-08-07T06:30:50.815Z,17.97
2022-08-07T06:33:27.489Z,17.97
2022-08-07T06:36:12.777Z,18.01
2022-08-07T06:40:16.831Z,18.08
2022-08-07T06:42:04.054Z,18.12
2022-08-07T06:44:57.684Z,18.17
2022-08-07T06:47:48.372Z,18.32
2022-08-07T06:50:23.149Z,18.43
2022-08-07T06:52:58.484Z,18.47
2022-08-07T06:55:48.282Z,18.53
2022-08-07T06:58:28.981Z,18.61
2022-08-07T07:01:10.618Z,18.67
2022-08-07T07:03:49.871Z,19.53
2022-08-07T07:06:28.240Z,19.76
2022-08-07T07:09:17.052Z,19.42
2022-08-07T07:12:15.507Z,19.24
2022-08-07T07:14:59.234Z,18.98
2022-08-07T07:17:39.069Z,18.97
2022-08-07T07:20:20.248Z,18.87
2022-08-07T07:24:06.250Z,18.94
2022-08-07T07:26:34.514Z,19.03
2022-08-07T07:29:40.687Z,19.08
2022-08-07T07:31:44.681Z,18.93
2022-08-07T07:34:21.582Z,19.04
2022-08-07T07:37:21.502Z,19.13
2022-08-07T07:40:10.190Z,18.99
2022-08-07T07:42:54.184Z,18.96
2022-08-07T07:46:38.222Z,19.11
2022-08-07T07:48:35.325Z,19.00
2022-08-07T07:51:10.417Z,19.10
2022-08-07T07:53:51.717Z,19.15
2022-08-07T07:56:30.370Z,19.17
2022-08-07T07:59:03.969Z,19.16
2022-08-07T08:02:03.812Z,19.19
2022-08-07T08:04:38.224Z,19.26
2022-08-07T08:07:11.765Z,19.40
2022-08-07T08:09:51.679Z,19.31
2022-08-07T08:12:52.104Z,19.47
2022-08-07T08:15:17.505Z,19.42
2022-08-07T08:17:58.673Z,19.42
2022-08-07T08:20:49.281Z,19.52
2022-08-07T08:23:41.204Z,19.62
2022-08-07T08:26:32.941Z,19.63
2022-08-07T08:29:06.261Z,19.78
2022-08-07T08:32:17.386Z,19.87
2022-08-07T08:34:39.729Z,19.99
2022-08-07T08:37:59.888Z,19.93
2022-08-07T08:40:23.587Z,20.16
2022-08-07T08:43:10.158Z,20.55
2022-08-07T08:45:59.310Z,20.79
2022-08-07T08:48:41.060Z,20.68
2022-08-07T08:51:26.214Z,20.62
2022-08-07T08:54:21.836Z,20.58
2022-08-07T08:56:58.530Z,20.49
2022-08-07T08:59:42.034Z,20.45
2022-08-07T09:02:36.655Z,20.51
2022-08-07T09:05:36.843Z,20.55
2022-08-07T09:08:24.127Z,20.52
2022-08-07T09:11:13.897Z,20.62
2022-08-07T09:14:09.644Z,20.56
2022-08-07T09:16:53.605Z,20.75
2022-08-07T09:19:51.000Z,20.71
2022-08-07T09:24:52.592Z,20.69
2022-08-07T09:25:53.452Z,20.57
2022-08-07T09:30:02.282Z,20.57
2022-08-07T09:31:39.995Z,20.54
2022-08-07T09:34:27.280Z,20.44
2022-08-07T09:37:05.588Z,20.41
2022-08-07T09:39:54.755Z,20.54
2022-08-07T09:42:45.522Z,20.42
2022-08-07T09:47:50.208Z,20.50
2022-08-07T09:48:30.129Z,21.00
2022-08-07T09:52:15.694Z,21.27
2022-08-07T09:54:27.238Z,21.46
2022-08-07T09:57:36.903Z,21.66
2022-08-07T10:00:31.998Z,21.61
2022-08-07T10:04:05.661Z,21.50
2022-08-07T10:06:59.616Z,21.44
2022-08-07T10:10:03.936Z,21.51
2022-08-07T10:12:54.981Z,21.65
2022-08-07T10:15:48.381Z,21.73
2022-08-07T10:18:56.378Z,22.13
2022-08-07T10:22:14.756Z,22.32
2022-08-07T10:24:50.105Z,22.50
2022-08-07T10:27:51.319Z,22.91
2022-08-07T10:30:34.814Z,23.37
2022-08-07T10:34:06.909Z,23.60
2022-08-07T10:36:47.618Z,23.69
2022-08-07T10:39:42.182Z,23.66
2022-08-07T10:42:37.545Z,23.79
2022-08-07T10:45:45.331Z,23.57
2022-08-07T10:48:34.710Z,23.26
2022-08-07T10:51:16.293Z,23.20
2022-08-07T10:54:14.389Z,23.58
2022-08-07T10:57:01.979Z,23.68
2022-08-07T10:59:51.050Z,23.75
2022-08-07T11:02:38.487Z,23.80
2022-08-07T11:05:20.283Z,23.65
2022-08-07T11:08:03.846Z,24.13
2022-08-07T11:10:43.566Z,24.41
2022-08-07T11:14:45.144Z,24.16
2022-08-07T11:16:30.562Z,24.52
2022-08-07T11:19:11.176Z,24.01
2022-08-07T11:21:55.499Z,24.33
2022-08-07T11:24:45.680Z,24.90
2022-08-07T11:28:00.761Z,25.18
2022-08-07T11:30:19.462Z,25.46
2022-08-07T11:33:18.277Z,25.47
2022-08-07T11:36:25.188Z,25.46
2022-08-07T11:39:19.732Z,25.40
2022-08-07T11:42:02.760Z,25.18
2022-08-07T11:44:52.470Z,25.62
2022-08-07T11:47:56.053Z,25.94
2022-08-07T11:50:57.935Z,25.54
2022-08-07T11:54:00.893Z,25.15
2022-08-07T11:56:46.472Z,24.83
2022-08-07T12:00:11.795Z,24.67
2022-08-07T12:03:44.540Z,24.62
2022-08-07T12:06:40.234Z,24.51
2022-08-07T12:09:27.037Z,24.77
2022-08-07T12:12:09.190Z,24.76
2022-08-07T12:15:00.254Z,24.66
2022-08-07T12:17:58.638Z,24.33
2022-08-07T12:20:36.957Z,24.15
2022-08-07T12:24:05.919Z,24.11
2022-08-07T12:26:29.783Z,24.51
2022-08-07T12:29:11.291Z,24.62
2022-08-07T12:31:52.920Z,24.57
2022-08-07T12:34:38.065Z,24.87
2022-08-07T12:37:16.544Z,25.20
2022-08-07T12:39:58.659Z,25.45
2022-08-07T12:42:32.326Z,25.70
2022-08-07T12:45:10.144Z,25.80
2022-08-07T12:47:49.118Z,25.73
2022-08-07T12:50:39.192Z,25.61
2022-08-07T12:53:22.203Z,25.43
2022-08-07T12:56:04.166Z,25.35
2022-08-07T12:58:46.789Z,25.66
2022-08-07T13:01:43.628Z,25.78
2022-08-07T13:04:35.170Z,25.54
2022-08-07T13:08:12.638Z,25.72
2022-08-07T13:10:51.757Z,25.89
2022-08-07T13:13:46.659Z,26.04
2022-08-07T13:16:30.679Z,25.80
2022-08-07T13:19:45.637Z,25.93
2022-08-07T13:22:29.925Z,26.01
2022-08-07T13:25:06.026Z,26.22
2022-08-07T13:28:12.514Z,26.20
2022-08-07T13:30:44.119Z,26.32
2022-08-07T13:34:31.722Z,26.42
2022-08-07T13:36:29.460Z,26.19
2022-08-07T13:39:12.858Z,26.13
2022-08-07T13:41:54.717Z,25.75
2022-08-07T13:44:34.548Z,25.68
2022-08-07T13:47:15.974Z,25.63
2022-08-07T13:50:35.518Z,25.64
2022-08-07T13:52:54.308Z,25.57
2022-08-07T13:55:27.615Z,25.36
2022-08-07T13:58:27.812Z,25.03
2022-08-07T14:01:12.362Z,25.07
2022-08-07T14:04:07.440Z,25.08
2022-08-07T14:06:41.473Z,24.87
2022-08-07T14:10:03.101Z,24.84
2022-08-07T14:12:27.546Z,24.92
2022-08-07T14:15:06.215Z,25.10
2022-08-07T14:18:15.518Z,24.61
2022-08-07T14:20:40.603Z,25.20
2022-08-07T14:23:59.310Z,25.20
2022-08-07T14:26:29.944Z,25.08
2022-08-07T14:30:03.066Z,24.66
2022-08-07T14:32:00.117Z,24.74
2022-08-07T14:34:34.587Z,25.29
2022-08-07T14:37:36.458Z,25.52
2022-08-07T14:40:27.076Z,25.28
2022-08-07T14:43:57.782Z,25.10
2022-08-07T14:45:58.371Z,25.10
2022-08-07T14:48:34.013Z,25.07
2022-08-07T14:51:16.102Z,25.20
2022-08-07T14:54:30.502Z,25.19
2022-08-07T14:56:48.939Z,25.15
2022-08-07T15:00:03.358Z,25.20
2022-08-07T15:02:31.695Z,25.50
2022-08-07T15:05:20.234Z,25.87
2022-08-07T15:07:56.676Z,26.28
2022-08-07T15:10:30.922Z,26.64
2022-08-07T15:13:11.678Z,26.70
2022-08-07T15:15:52.600Z,25.99
2022-08-07T15:18:36.015Z,25.84
2022-08-07T15:21:59.562Z,25.72
2022-08-07T15:27:11.202Z,25.30
2022-08-07T15:30:08.644Z,25.47
2022-08-07T15:32:50.730Z,25.96
2022-08-07T15:36:00.786Z,26.62
2022-08-07T15:38:50.999Z,27.02
2022-08-07T15:44:23.777Z,26.97
2022-08-07T15:50:05.069Z,27.17
2022-08-07T15:52:40.722Z,27.05
2022-08-07T15:55:23.333Z,27.37
2022-08-07T15:58:21.053Z,27.79
2022-08-07T16:00:56.339Z,28.25
2022-08-07T16:03:46.243Z,28.17
2022-08-07T16:06:29.017Z,28.05
2022-08-07T16:09:02.991Z,28.48
2022-08-07T16:12:28.625Z,28.24
2022-08-07T16:15:54.945Z,28.40
2022-08-07T16:18:50.419Z,28.14
2022-08-07T16:21:57.163Z,28.48
2022-08-07T16:24:34.641Z,28.67
2022-08-07T16:27:17.825Z,29.32
2022-08-07T16:30:29.552Z,29.52
2022-08-07T16:34:07.177Z,29.08
2022-08-07T16:36:32.070Z,29.67
2022-08-07T16:39:33.850Z,29.68
2022-08-07T16:42:34.662Z,29.86
2022-08-07T16:46:40.304Z,30.37
2022-08-07T16:50:27.790Z,29.83
2022-08-07T16:52:49.242Z,29.94
2022-08-07T16:55:11.410Z,29.28
2022-08-07T16:58:03.483Z,29.00
2022-08-07T17:00:43.185Z,28.56
2022-08-07T17:03:58.014Z,28.31
2022-08-07T17:06:45.779Z,27.73
2022-08-07T17:10:07.228Z,27.22
2022-08-07T17:12:36.680Z,26.69
2022-08-07T17:15:22.064Z,26.85
2022-08-07T17:18:19.402Z,26.52
2022-08-07T17:20:54.882Z,26.49
2022-08-07T17:23:44.174Z,26.42
2022-08-07T17:26:30.478Z,26.27
2022-08-07T17:30:12.369Z,26.14
2022-08-07T17:32:28.796Z,25.83
2022-08-07T17:35:49.904Z,25.73
2022-08-07T17:38:32.040Z,25.59
2022-08-07T17:42:00.712Z,25.37
2022-08-07T17:44:08.282Z,25.29
2022-08-07T17:46:53.433Z,25.24
2022-08-07T17:49:31.717Z,25.08
2022-08-07T17:52:50.643Z,25.08
2022-08-07T17:56:00.923Z,25.09
2022-08-07T17:58:46.162Z,24.85
2022-08-07T18:01:34.825Z,24.86
2022-08-07T18:04:22.536Z,24.89
2022-08-07T18:07:24.575Z,24.85
2022-08-07T18:10:05.896Z,24.74
2022-08-07T18:13:09.682Z,24.71
2022-08-07T18:15:55.614Z,24.64
2022-08-07T18:18:45.764Z,24.60
2022-08-07T18:21:54.907Z,24.42
2022-08-07T18:24:34.304Z,24.37
2022-08-07T18:27:25.432Z,24.33
2022-08-07T18:30:32.001Z,24.10
2022-08-07T18:33:55.261Z,23.88
2022-08-07T18:36:36.247Z,23.83
2022-08-07T18:40:08.615Z,23.75
2022-08-07T18:42:18.636Z,23.67
2022-08-07T18:45:43.303Z,23.55
2022-08-07T18:48:04.082Z,23.45
2022-08-07T18:50:59.153Z,23.44
2022-08-07T18:53:46.337Z,23.30
2022-08-07T18:56:34.171Z,23.26
2022-08-07T18:59:47.961Z,23.17
2022-08-07T19:02:42.177Z,23.00
2022-08-07T19:05:23.541Z,22.96
2022-08-07T19:08:05.208Z,22.89
2022-08-07T19:10:49.558Z,22.85
2022-08-07T19:13:27.792Z,22.73
2022-08-07T19:17:01.327Z,22.65
2022-08-07T19:19:43.477Z,22.58
2022-08-07T19:23:18.516Z,22.54
2022-08-07T19:26:23.929Z,22.39
2022-08-07T19:30:55.986Z,22.36
2022-08-07T19:32:11.433Z,22.26
2022-08-07T19:34:48.443Z,22.15
2022-08-07T19:37:23.820Z,22.08
2022-08-07T19:40:01.901Z,22.03
2022-08-07T19:42:42.884Z,21.81
2022-08-07T19:46:04.620Z,21.92
2022-08-07T19:48:19.022Z,22.02
2022-08-07T19:50:57.579Z,22.08
2022-08-07T19:54:29.832Z,22.10
2022-08-07T19:57:51.866Z,22.12
2022-08-07T19:59:22.134Z,22.02
2022-08-07T20:02:02.589Z,21.92
2022-08-07T20:04:40.283Z,21.86
2022-08-07T20:07:14.311Z,21.81
2022-08-07T20:10:35.351Z,21.76
2022-08-07T20:12:52.408Z,21.70
2022-08-07T20:15:32.783Z,21.73
2022-08-07T20:18:14.620Z,21.78
2022-08-07T20:20:51.635Z,21.66
2022-08-07T20:23:41.599Z,21.60
2022-08-07T20:26:20.538Z,21.47
2022-08-07T20:29:10.552Z,21.50
2022-08-07T20:31:50.679Z,21.48
2022-08-07T20:34:49.674Z,21.29
2022-08-07T20:37:24.290Z,21.31
2022-08-07T20:40:03.035Z,21.20
2022-08-07T20:42:44.411Z,21.15
2022-08-07T20:45:32.592Z,20.91
2022-08-07T20:48:25.798Z,20.77
2022-08-07T20:51:03.280Z,20.75
2022-08-07T20:54:03.489Z,20.83
2022-08-07T20:56:32.422Z,20.81
2022-08-07T21:00:05.494Z,20.72
2022-08-07T21:02:00.851Z,20.83
2022-08-07T21:04:34.445Z,20.91
2022-08-07T21:07:14.509Z,20.80
2022-08-07T21:10:00.234Z,20.87
2022-08-07T21:12:36.862Z,20.94
2022-08-07T21:15:18.853Z,20.98
2022-08-07T21:18:17.524Z,20.93
2022-08-07T21:20:56.073Z,20.84
2022-08-07T21:23:42.717Z,20.79
2022-08-07T21:26:34.761Z,20.57
2022-08-07T21:29:18.263Z,20.48
2022-08-07T21:32:46.920Z,20.60
2022-08-07T21:35:00.582Z,20.46
2022-08-07T21:37:57.757Z,20.32
2022-08-07T21:40:38.347Z,20.16
2022-08-07T21:43:15.076Z,19.74
2022-08-07T21:46:11.305Z,19.70
2022-08-07T21:49:00.845Z,19.79
2022-08-07T21:51:54.678Z,19.84
2022-08-07T21:54:39.261Z,19.93
2022-08-07T21:57:44.439Z,19.71
2022-08-07T22:00:22.956Z,19.74
2022-08-07T22:03:03.320Z,19.70
2022-08-07T22:05:45.389Z,19.72
2022-08-07T22:08:21.377Z,19.69
2022-08-07T22:11:00.252Z,19.65
2022-08-07T22:13:52.683Z,19.55
2022-08-07T22:16:45.003Z,19.44
2022-08-07T22:19:30.190Z,19.42
2022-08-07T22:22:20.691Z,19.50
2022-08-07T22:25:08.674Z,19.60
2022-08-07T22:28:05.983Z,19.57
2022-08-07T22:30:52.721Z,19.50
2022-08-07T22:33:53.680Z,19.14
2022-08-07T22:36:32.659Z,19.05
2022-08-07T22:39:14.140Z,18.99
2022-08-07T22:42:03.668Z,18.58
2022-08-07T22:44:58.346Z,18.50
2022-08-07T22:48:03.077Z,18.53
2022-08-07T22:54:05.405Z,18.40
2022-08-07T22:56:56.862Z,18.12
2022-08-07T22:59:53.379Z,17.94
2022-08-07T23:02:56.763Z,18.13
2022-08-07T23:06:08.794Z,18.46
2022-08-07T23:10:01.119Z,18.72
2022-08-07T23:12:34.726Z,18.88
2022-08-07T23:15:21.999Z,18.76
2022-08-07T23:18:25.876Z,18.96
2022-08-07T23:21:30.367Z,18.83
2022-08-07T23:24:27.811Z,18.91
2022-08-07T23:27:16.286Z,18.91
2022-08-07T23:30:39.126Z,18.94
2022-08-07T23:34:36.831Z,18.83
2022-08-07T23:36:43.236Z,18.90
2022-08-07T23:39:22.555Z,18.95
2022-08-07T23:42:15.698Z,18.75
2022-08-07T23:45:15.211Z,18.40
2022-08-07T23:48:05.514Z,18.38
2022-08-07T23:50:42.026Z,18.34
2022-08-07T23:53:49.964Z,18.47
2022-08-07T23:56:26.814Z,18.29
2022-08-07T23:59:10.227Z,18.38
